createdAt,value
2022-09-23T00:00:18.921Z,59.30
2022-09-23T00:01:18.951Z,61.71
2022-09-23T00:02:18.965Z,56.07
2022-09-23T00:03:18.863Z,57.04
2022-09-23T00:04:18.860Z,50.60
2022-09-23T00:05:18.833Z,61.23
2022-09-23T00:06:18.850Z,61.71
2022-09-23T00:07:18.835Z,60.42
2022-09-23T00:08:18.800Z,61.71
2022-09-23T00:09:18.797Z,53.66
2022-09-23T00:10:18.789Z,52.85
2022-09-23T00:11:18.802Z,57.69
2022-09-23T00:12:29.946Z,59.30
2022-09-23T00:13:18.801Z,59.30
2022-09-23T00:14:18.746Z,61.07
2022-09-23T00:15:18.723Z,57.20
2022-09-23T00:16:18.800Z,58.65
2022-09-23T00:17:18.714Z,60.91
2022-09-23T00:18:18.709Z,59.46
2022-09-23T00:19:18.679Z,59.62
2022-09-23T00:20:18.695Z,62.52
2022-09-23T00:21:18.702Z,63.16
2022-09-23T00:22:18.638Z,60.10
2022-09-23T00:23:18.647Z,61.23
2022-09-23T00:24:18.654Z,58.97
2022-09-23T00:25:18.658Z,62.84
2022-09-23T00:26:18.613Z,61.71
2022-09-23T00:27:18.652Z,59.30
2022-09-23T00:28:18.585Z,61.87
2022-09-23T00:29:19.379Z,60.75
2022-09-23T00:30:18.574Z,60.26
2022-09-23T00:31:18.619Z,56.07
2022-09-23T00:32:18.594Z,59.62
2022-09-23T00:33:18.542Z,62.04
2022-09-23T00:34:18.542Z,53.33
2022-09-23T00:35:18.530Z,53.98
2022-09-23T00:36:18.509Z,58.49
2022-09-23T00:37:18.503Z,59.46
2022-09-23T00:38:19.262Z,61.87
2022-09-23T00:39:18.496Z,53.50
2022-09-23T00:40:18.499Z,57.52
2022-09-23T00:41:18.450Z,52.69
2022-09-23T00:42:18.471Z,59.30
2022-09-23T00:43:18.461Z,61.39
2022-09-23T00:44:18.415Z,57.85
2022-09-23T00:45:18.424Z,61.87
2022-09-23T00:46:18.431Z,62.20
2022-09-23T00:47:18.398Z,59.14
2022-09-23T00:48:18.415Z,57.85
2022-09-23T00:49:18.391Z,60.91
2022-09-23T00:50:18.360Z,62.04
2022-09-23T00:51:18.351Z,59.30
2022-09-23T00:52:18.338Z,56.88
2022-09-23T00:53:18.313Z,57.36
2022-09-23T00:54:18.328Z,58.65
2022-09-23T00:55:18.304Z,59.30
2022-09-23T00:56:18.289Z,57.36
2022-09-23T00:57:18.276Z,61.39
2022-09-23T00:58:18.270Z,61.07
2022-09-23T00:59:18.295Z,58.65
2022-09-23T01:00:18.250Z,62.36
2022-09-23T01:01:18.257Z,56.88
2022-09-23T01:02:18.295Z,52.05
2022-09-23T01:03:18.211Z,55.27
2022-09-23T01:04:18.233Z,61.55
2022-09-23T01:05:18.205Z,54.95
2022-09-23T01:06:18.210Z,58.81
2022-09-23T01:07:18.173Z,62.52
2022-09-23T01:08:18.154Z,56.88
2022-09-23T01:09:18.146Z,60.91
2022-09-23T01:10:18.149Z,59.78
2022-09-23T01:11:18.143Z,52.21
2022-09-23T01:12:18.149Z,59.94
2022-09-23T01:13:18.089Z,60.75
2022-09-23T01:14:18.099Z,59.94
2022-09-23T01:15:18.082Z,54.30
2022-09-23T01:16:18.126Z,56.40
2022-09-23T01:17:18.047Z,61.07
2022-09-23T01:18:18.058Z,54.79
2022-09-23T01:19:18.050Z,60.91
2022-09-23T01:20:18.031Z,61.55
2022-09-23T01:21:18.003Z,54.30
2022-09-23T01:22:17.996Z,61.39
2022-09-23T01:23:17.972Z,60.91
2022-09-23T01:24:18.008Z,61.07
2022-09-23T01:25:18.010Z,58.81
2022-09-23T01:26:17.939Z,56.24
2022-09-23T01:27:18.934Z,59.46
2022-09-23T01:28:17.936Z,59.94
2022-09-23T01:29:17.920Z,60.59
2022-09-23T01:30:17.921Z,57.20
2022-09-23T01:31:17.978Z,58.81
2022-09-23T01:32:17.878Z,55.91
2022-09-23T01:33:17.865Z,58.97
2022-09-23T01:34:17.865Z,59.62
2022-09-23T01:35:17.852Z,56.24
2022-09-23T01:36:17.873Z,53.82
2022-09-23T01:37:17.847Z,57.36
2022-09-23T01:38:17.835Z,61.07
2022-09-23T01:39:17.806Z,56.24
2022-09-23T01:40:17.864Z,56.24
2022-09-23T01:41:17.805Z,57.04
2022-09-23T01:42:17.774Z,59.94
2022-09-23T01:43:17.770Z,59.78
2022-09-23T01:44:17.734Z,59.78
2022-09-23T01:45:17.745Z,60.26
2022-09-23T01:46:17.738Z,58.97
2022-09-23T01:47:17.733Z,61.39
2022-09-23T01:48:17.718Z,59.78
2022-09-23T01:49:17.722Z,55.91
2022-09-23T01:50:17.694Z,58.65
2022-09-23T01:51:17.706Z,55.43
2022-09-23T01:52:17.703Z,55.75
2022-09-23T01:53:17.638Z,61.55
2022-09-23T01:54:17.642Z,59.94
2022-09-23T01:55:17.640Z,58.65
2022-09-23T01:56:17.619Z,59.94
2022-09-23T01:57:17.647Z,60.10
2022-09-23T01:58:17.591Z,60.75
2022-09-23T01:59:17.593Z,57.52
2022-09-23T02:00:17.554Z,58.65
2022-09-23T02:01:17.636Z,61.07
2022-09-23T02:02:17.610Z,60.59
2022-09-23T02:03:17.559Z,56.72
2022-09-23T02:04:17.550Z,60.91
2022-09-23T02:05:17.526Z,56.24
2022-09-23T02:06:17.553Z,55.11
2022-09-23T02:07:17.496Z,60.75
2022-09-23T02:08:17.518Z,60.59
2022-09-23T02:09:18.479Z,63.16
2022-09-23T02:10:17.504Z,53.01
2022-09-23T02:11:17.462Z,59.14
2022-09-23T02:12:17.477Z,59.78
2022-09-23T02:13:17.477Z,60.91
2022-09-23T02:14:17.447Z,61.39
2022-09-23T02:15:17.427Z,60.91
2022-09-23T02:16:17.405Z,63.16
2022-09-23T02:17:17.391Z,63.33
2022-09-23T02:18:17.411Z,60.42
2022-09-23T02:19:17.382Z,62.52
2022-09-23T02:20:17.366Z,62.36
2022-09-23T02:21:17.360Z,60.26
2022-09-23T02:22:17.324Z,59.14
2022-09-23T02:23:17.349Z,61.87
2022-09-23T02:24:17.341Z,62.68
2022-09-23T02:25:17.441Z,62.20
2022-09-23T02:26:17.289Z,61.71
2022-09-23T02:27:17.292Z,63.16
2022-09-23T02:28:17.501Z,62.84
2022-09-23T02:29:17.281Z,59.94
2022-09-23T02:30:17.263Z,59.30
2022-09-23T02:31:17.255Z,57.52
2022-09-23T02:32:17.239Z,62.04
2022-09-23T02:33:17.235Z,57.85
2022-09-23T02:34:17.230Z,57.36
2022-09-23T02:35:17.189Z,61.39
2022-09-23T02:36:17.175Z,61.55
2022-09-23T02:37:17.340Z,60.91
2022-09-23T02:38:17.148Z,63.65
2022-09-23T02:39:17.185Z,61.55
2022-09-23T02:40:17.217Z,59.94
2022-09-23T02:41:17.126Z,62.68
2022-09-23T02:42:17.122Z,62.04
2022-09-23T02:43:17.105Z,61.07
2022-09-23T02:44:17.127Z,58.17
2022-09-23T02:45:17.080Z,61.87
2022-09-23T02:46:17.124Z,61.39
2022-09-23T02:47:17.041Z,63.49
2022-09-23T02:48:17.058Z,61.87
2022-09-23T02:49:17.035Z,62.36
2022-09-23T02:50:17.052Z,61.55
2022-09-23T02:51:17.015Z,59.78
2022-09-23T02:52:17.018Z,59.46
2022-09-23T02:53:16.985Z,61.39
2022-09-23T02:54:17.005Z,61.39
2022-09-23T02:55:16.999Z,60.42
2022-09-23T02:56:16.958Z,61.23
2022-09-23T02:57:16.946Z,61.07
2022-09-23T02:58:16.921Z,57.85
2022-09-23T03:02:41.757Z,59.14
2022-09-23T03:03:41.509Z,59.46
2022-09-23T03:04:41.480Z,60.75
2022-09-23T03:05:41.489Z,61.87
2022-09-23T03:06:41.454Z,63.81
2022-09-23T03:07:41.467Z,60.59
2022-09-23T03:08:41.433Z,60.91
2022-09-23T03:09:41.428Z,61.07
2022-09-23T03:10:41.407Z,63.65
2022-09-23T03:11:41.417Z,63.97
2022-09-23T03:12:41.400Z,59.46
2022-09-23T03:13:41.377Z,59.30
2022-09-23T03:14:41.365Z,62.20
2022-09-23T03:15:41.354Z,61.39
2022-09-23T03:16:41.413Z,61.23
2022-09-23T03:17:41.350Z,62.52
2022-09-23T03:18:41.322Z,62.04
2022-09-23T03:19:41.480Z,58.81
2022-09-23T03:20:41.287Z,58.81
2022-09-23T03:21:41.297Z,60.10
2022-09-23T03:22:41.288Z,65.10
2022-09-23T03:23:41.268Z,62.84
2022-09-23T03:24:41.240Z,62.20
2022-09-23T03:25:41.243Z,62.04
2022-09-23T03:26:41.233Z,60.75
2022-09-23T03:27:41.248Z,63.16
2022-09-23T03:28:41.221Z,62.68
2022-09-23T03:29:41.176Z,62.36
2022-09-23T03:30:41.178Z,64.45
2022-09-23T03:31:41.217Z,63.16
2022-09-23T03:32:41.151Z,61.71
2022-09-23T03:33:41.188Z,62.68
2022-09-23T03:34:41.128Z,60.91
2022-09-23T03:35:41.111Z,64.13
2022-09-23T03:36:41.108Z,63.16
2022-09-23T03:37:41.086Z,63.00
2022-09-23T03:38:41.089Z,65.58
2022-09-23T03:39:41.078Z,62.52
2022-09-23T03:40:41.111Z,61.71
2022-09-23T03:41:41.040Z,63.81
2022-09-23T03:42:41.045Z,63.49
2022-09-23T03:43:41.025Z,63.16
2022-09-23T03:44:41.057Z,61.07
2022-09-23T03:45:41.040Z,61.39
2022-09-23T03:46:40.986Z,64.94
2022-09-23T03:47:40.968Z,65.58
2022-09-23T03:48:40.964Z,59.94
2022-09-23T03:49:40.960Z,64.45
2022-09-23T03:50:40.947Z,60.75
2022-09-23T03:51:44.523Z,61.39
2022-09-23T03:52:40.967Z,62.68
2022-09-23T03:53:41.076Z,60.26
2022-09-23T03:54:40.921Z,61.55
2022-09-23T03:55:40.875Z,62.36
2022-09-23T03:56:40.876Z,60.75
2022-09-23T03:57:40.853Z,63.16
2022-09-23T03:58:40.876Z,62.84
2022-09-23T03:59:40.855Z,63.49
2022-09-23T04:00:40.878Z,63.49
2022-09-23T04:01:40.826Z,60.75
2022-09-23T04:02:40.804Z,61.07
2022-09-23T04:03:40.783Z,62.04
2022-09-23T04:04:40.850Z,65.42
2022-09-23T04:05:40.793Z,62.20
2022-09-23T04:06:40.758Z,63.97
2022-09-23T04:07:40.727Z,64.13
2022-09-23T04:08:40.730Z,63.33
2022-09-23T04:09:40.708Z,62.68
2022-09-23T04:10:40.703Z,63.65
2022-09-23T04:11:40.700Z,63.97
2022-09-23T04:12:40.681Z,64.13
2022-09-23T04:13:40.663Z,64.29
2022-09-23T04:14:40.658Z,64.94
2022-09-23T04:15:40.634Z,59.14
2022-09-23T04:16:40.731Z,64.45
2022-09-23T04:17:40.614Z,60.91
2022-09-23T04:18:40.618Z,65.42
2022-09-23T04:19:40.590Z,64.61
2022-09-23T04:20:40.597Z,64.29
2022-09-23T04:21:40.599Z,65.26
2022-09-23T04:22:40.563Z,62.36
2022-09-23T04:23:40.544Z,62.68
2022-09-23T04:24:40.541Z,63.16
2022-09-23T04:25:40.520Z,64.13
2022-09-23T04:26:40.516Z,63.00
2022-09-23T04:27:40.539Z,62.84
2022-09-23T04:28:40.499Z,65.26
2022-09-23T04:29:40.486Z,64.78
2022-09-23T04:30:40.468Z,62.52
2022-09-23T04:31:40.575Z,61.39
2022-09-23T04:32:40.443Z,62.36
2022-09-23T04:33:40.443Z,62.68
2022-09-23T04:34:40.421Z,64.61
2022-09-23T04:35:40.566Z,65.10
2022-09-23T04:36:40.401Z,62.36
2022-09-23T04:37:40.375Z,63.65
2022-09-23T04:38:40.390Z,64.94
2022-09-23T04:39:41.487Z,63.33
2022-09-23T04:40:41.571Z,65.10
2022-09-23T04:41:41.467Z,65.74
2022-09-23T04:42:41.459Z,65.26
2022-09-23T04:43:41.452Z,63.16
2022-09-23T04:44:41.859Z,63.00
2022-09-23T04:45:41.416Z,65.10
2022-09-23T04:46:41.523Z,63.49
2022-09-23T04:47:41.384Z,64.45
2022-09-23T04:48:41.420Z,63.16
2022-09-23T04:49:41.371Z,66.39
2022-09-23T04:50:41.357Z,67.51
2022-09-23T04:51:41.352Z,67.68
2022-09-23T04:52:41.329Z,67.03
2022-09-23T04:53:41.722Z,65.42
2022-09-23T04:54:41.325Z,67.03
2022-09-23T04:55:41.301Z,66.55
2022-09-23T04:56:41.297Z,66.06
2022-09-23T04:57:41.259Z,66.23
2022-09-23T04:58:41.274Z,66.23
2022-09-23T04:59:41.264Z,64.61
2022-09-23T05:00:41.258Z,64.45
2022-09-23T05:01:41.279Z,62.04
2022-09-23T05:02:41.202Z,66.06
2022-09-23T05:03:41.204Z,63.65
2022-09-23T05:04:41.195Z,64.94
2022-09-23T05:05:41.176Z,60.91
2022-09-23T05:06:41.147Z,65.26
2022-09-23T05:07:41.147Z,66.55
2022-09-23T05:08:41.138Z,64.94
2022-09-23T05:09:41.153Z,61.87
2022-09-23T05:10:41.121Z,64.94
2022-09-23T05:11:41.117Z,63.33
2022-09-23T05:12:41.086Z,65.74
2022-09-23T05:13:41.097Z,63.00
2022-09-23T05:14:41.103Z,63.49
2022-09-23T05:15:41.062Z,64.94
2022-09-23T05:16:41.123Z,63.65
2022-09-23T05:17:41.033Z,64.61
2022-09-23T05:18:41.012Z,65.42
2022-09-23T05:19:41.052Z,64.29
2022-09-23T05:20:40.997Z,65.42
2022-09-23T05:21:40.996Z,65.10
2022-09-23T05:22:40.963Z,65.58
2022-09-23T05:23:40.966Z,66.23
2022-09-23T05:24:40.949Z,64.29
2022-09-23T05:25:40.991Z,65.74
2022-09-23T05:26:40.927Z,61.71
2022-09-23T05:27:40.925Z,62.36
2022-09-23T05:28:40.903Z,66.23
2022-09-23T05:29:40.880Z,66.06
2022-09-23T05:30:40.943Z,67.35
2022-09-23T05:31:41.160Z,65.58
2022-09-23T05:32:40.862Z,65.58
2022-09-23T05:33:40.852Z,65.74
2022-09-23T05:34:40.839Z,66.55
2022-09-23T05:35:40.827Z,65.74
2022-09-23T05:36:40.841Z,65.10
2022-09-23T05:37:40.794Z,64.61
2022-09-23T05:38:40.784Z,63.97
2022-09-23T05:39:41.530Z,64.61
2022-09-23T05:40:40.873Z,64.61
2022-09-23T05:41:40.808Z,64.61
2022-09-23T05:42:40.756Z,63.00
2022-09-23T05:43:40.739Z,61.87
2022-09-23T05:44:40.732Z,64.78
2022-09-23T05:45:40.716Z,66.06
2022-09-23T05:46:40.749Z,63.97
2022-09-23T05:47:40.696Z,64.29
2022-09-23T05:48:41.371Z,64.13
2022-09-23T05:49:58.639Z,64.13
2022-09-23T05:50:40.666Z,64.29
2022-09-23T05:51:40.660Z,63.16
2022-09-23T05:52:40.658Z,65.90
2022-09-23T05:53:40.638Z,62.84
2022-09-23T05:54:40.626Z,65.42
2022-09-23T05:55:40.607Z,65.58
2022-09-23T05:56:40.596Z,63.33
2022-09-23T05:57:40.620Z,60.91
2022-09-23T05:58:40.573Z,63.81
2022-09-23T05:59:40.580Z,65.90
2022-09-23T06:00:40.548Z,66.39
2022-09-23T06:01:40.579Z,63.16
2022-09-23T06:02:40.642Z,65.10
2022-09-23T06:03:40.534Z,66.71
2022-09-23T06:04:40.504Z,64.61
2022-09-23T06:05:40.509Z,64.45
2022-09-23T06:06:40.483Z,63.49
2022-09-23T06:07:40.482Z,63.16
2022-09-23T06:08:40.488Z,65.10
2022-09-23T06:09:41.451Z,63.49
2022-09-23T06:10:40.447Z,65.10
2022-09-23T06:11:40.428Z,64.13
2022-09-23T06:12:40.441Z,65.10
2022-09-23T06:13:40.425Z,63.65
2022-09-23T06:14:40.396Z,63.97
2022-09-23T06:15:40.431Z,66.39
2022-09-23T06:16:40.363Z,64.61
2022-09-23T06:17:40.360Z,61.71
2022-09-23T06:18:40.400Z,65.42
2022-09-23T06:19:40.334Z,64.61
2022-09-23T06:20:40.321Z,62.20
2022-09-23T06:21:40.321Z,62.84
2022-09-23T06:22:40.339Z,63.81
2022-09-23T06:23:41.768Z,63.00
2022-09-23T06:24:40.288Z,62.52
2022-09-23T06:25:40.276Z,63.49
2022-09-23T06:26:40.254Z,62.84
2022-09-23T06:27:40.264Z,61.39
2022-09-23T06:28:40.237Z,60.10
2022-09-23T06:29:40.262Z,61.07
2022-09-23T06:30:40.207Z,61.55
2022-09-23T06:31:40.254Z,60.59
2022-09-23T06:32:40.195Z,62.52
2022-09-23T06:33:40.187Z,62.68
2022-09-23T06:34:50.366Z,62.36
2022-09-23T06:35:40.791Z,61.71
2022-09-23T06:36:44.570Z,62.36
2022-09-23T06:37:40.137Z,60.26
2022-09-23T06:38:40.127Z,59.62
2022-09-23T06:39:40.115Z,57.20
2022-09-23T06:40:40.208Z,61.07
2022-09-23T06:41:40.077Z,61.55
2022-09-23T06:42:40.086Z,61.87
2022-09-23T06:43:40.064Z,61.23
2022-09-23T06:44:40.050Z,62.84
2022-09-23T06:45:40.070Z,61.23
2022-09-23T06:46:40.097Z,60.91
2022-09-23T06:47:40.030Z,58.97
2022-09-23T06:48:42.852Z,59.94
2022-09-23T06:49:40.006Z,61.87
2022-09-23T06:50:39.997Z,62.36
2022-09-23T06:51:39.989Z,60.59
2022-09-23T06:52:39.969Z,60.91
2022-09-23T06:53:39.964Z,61.55
2022-09-23T06:54:39.948Z,62.84
2022-09-23T06:55:39.936Z,59.78
2022-09-23T06:56:40.230Z,60.91
2022-09-23T06:57:39.912Z,61.71
2022-09-23T06:58:39.890Z,59.62
2022-09-23T06:59:40.895Z,61.87
2022-09-23T07:00:39.876Z,62.84
2022-09-23T07:01:40.004Z,60.75
2022-09-23T07:02:39.947Z,61.07
2022-09-23T07:03:39.849Z,61.55
2022-09-23T07:04:39.852Z,62.20
2022-09-23T07:05:39.814Z,58.81
2022-09-23T07:06:39.811Z,59.94
2022-09-23T07:07:39.814Z,61.23
2022-09-23T07:08:39.786Z,61.87
2022-09-23T07:09:39.762Z,63.00
2022-09-23T07:10:39.776Z,60.91
2022-09-23T07:11:39.773Z,61.07
2022-09-23T07:12:39.773Z,61.55
2022-09-23T07:13:39.726Z,61.39
2022-09-23T07:14:39.717Z,63.65
2022-09-23T07:15:39.764Z,60.59
2022-09-23T07:16:39.685Z,61.23
2022-09-23T07:17:39.726Z,59.30
2022-09-23T07:18:39.678Z,57.85
2022-09-23T07:19:39.676Z,59.62
2022-09-23T07:20:39.659Z,61.39
2022-09-23T07:21:39.636Z,60.10
2022-09-23T07:22:39.626Z,60.42
2022-09-23T07:23:39.642Z,58.49
2022-09-23T07:24:39.614Z,60.91
2022-09-23T07:25:39.598Z,61.87
2022-09-23T07:26:44.868Z,61.39
2022-09-23T07:27:39.578Z,62.68
2022-09-23T07:28:39.588Z,63.81
2022-09-23T07:29:48.169Z,58.01
2022-09-23T07:30:44.250Z,58.33
2022-09-23T07:31:40.196Z,61.23
2022-09-23T07:32:48.273Z,60.91
2022-09-23T07:33:39.557Z,59.14
2022-09-23T07:34:39.505Z,58.97
2022-09-23T07:35:39.493Z,62.84
2022-09-23T07:36:39.476Z,61.55
2022-09-23T07:37:39.472Z,60.59
2022-09-23T07:38:44.982Z,61.07
2022-09-23T07:39:39.471Z,60.75
2022-09-23T07:40:39.469Z,60.91
2022-09-23T07:41:39.416Z,60.10
2022-09-23T07:42:39.418Z,63.33
2022-09-23T07:43:39.406Z,61.55
2022-09-23T07:44:39.423Z,60.10
2022-09-23T07:45:39.542Z,61.71
2022-09-23T07:46:39.443Z,60.91
2022-09-23T07:47:39.462Z,61.23
2022-09-23T07:48:39.345Z,59.78
2022-09-23T07:49:39.372Z,60.59
2022-09-23T07:50:39.331Z,59.30
2022-09-23T07:51:39.309Z,58.65
2022-09-23T07:52:39.293Z,57.85
2022-09-23T07:53:39.287Z,57.52
2022-09-23T07:54:39.276Z,60.59
2022-09-23T07:55:39.311Z,60.26
2022-09-23T07:56:39.238Z,61.87
2022-09-23T07:57:39.241Z,62.20
2022-09-23T07:58:39.221Z,61.39
2022-09-23T07:59:39.205Z,59.46
2022-09-23T08:00:39.232Z,59.78
2022-09-23T08:01:39.264Z,61.87
2022-09-23T08:02:39.231Z,61.71
2022-09-23T08:03:39.155Z,60.10
2022-09-23T08:04:39.156Z,57.20
2022-09-23T08:05:39.155Z,60.42
2022-09-23T08:06:39.178Z,61.23
2022-09-23T08:07:39.109Z,61.71
2022-09-23T08:08:39.081Z,59.30
2022-09-23T08:09:39.096Z,58.97
2022-09-23T08:10:39.118Z,59.30
2022-09-23T08:11:39.093Z,61.71
2022-09-23T08:12:39.048Z,59.62
2022-09-23T08:13:39.032Z,60.75
2022-09-23T08:14:39.013Z,58.81
2022-09-23T08:15:39.059Z,60.59
2022-09-23T08:16:39.002Z,59.30
2022-09-23T08:17:39.010Z,59.78
2022-09-23T08:18:38.978Z,60.59
2022-09-23T08:19:38.944Z,60.91
2022-09-23T08:20:42.514Z,59.78
2022-09-23T08:21:38.958Z,59.94
2022-09-23T08:22:38.956Z,61.07
2022-09-23T08:23:38.906Z,62.04
2022-09-23T08:24:38.890Z,59.78
2022-09-23T08:25:38.905Z,62.20
2022-09-23T08:26:38.875Z,62.36
2022-09-23T08:27:38.897Z,58.01
2022-09-23T08:28:38.861Z,59.62
2022-09-23T08:29:38.834Z,59.94
2022-09-23T08:30:38.850Z,60.26
2022-09-23T08:31:38.815Z,59.94
2022-09-23T08:32:38.838Z,62.04
2022-09-23T08:33:39.317Z,62.52
2022-09-23T08:34:38.791Z,59.62
2022-09-23T08:35:38.764Z,58.17
2022-09-23T08:36:38.886Z,62.84
2022-09-23T08:40:29.186Z,61.39
2022-09-23T08:41:29.087Z,62.68
2022-09-23T08:42:29.038Z,58.49
2022-09-23T08:43:28.939Z,60.75
2022-09-23T08:44:28.995Z,61.39
2022-09-23T08:45:28.916Z,61.71
2022-09-23T08:46:28.961Z,58.97
2022-09-23T08:47:28.905Z,62.04
2022-09-23T08:48:28.872Z,61.23
2022-09-23T08:49:28.918Z,59.78
2022-09-23T08:50:28.850Z,61.23
2022-09-23T08:51:29.090Z,59.46
2022-09-23T08:54:38.407Z,62.36
2022-09-23T08:55:38.357Z,62.36
2022-09-23T08:56:38.421Z,62.36
2022-09-23T09:00:03.099Z,60.42
2022-09-23T09:01:01.350Z,62.20
2022-09-23T09:02:01.282Z,61.23
2022-09-23T09:03:01.264Z,61.07
2022-09-23T09:04:01.267Z,58.97
2022-09-23T09:05:01.240Z,61.39
2022-09-23T09:06:01.278Z,61.07
2022-09-23T09:07:24.500Z,61.07
2022-09-23T09:08:01.216Z,59.94
2022-09-23T09:09:01.209Z,60.91
2022-09-23T09:10:01.196Z,62.36
2022-09-23T09:11:01.172Z,61.39
2022-09-23T09:12:01.190Z,62.20
2022-09-23T09:13:01.153Z,61.71
2022-09-23T09:14:11.419Z,62.52
2022-09-23T09:15:01.311Z,60.42
2022-09-23T09:16:02.573Z,60.59
2022-09-23T09:17:02.540Z,61.23
2022-09-23T09:18:02.263Z,62.20
2022-09-23T09:19:02.291Z,62.84
2022-09-23T09:20:02.220Z,61.07
2022-09-23T09:21:02.226Z,59.46
2022-09-23T09:22:02.227Z,63.00
2022-09-23T09:23:02.185Z,61.39
2022-09-23T09:24:02.225Z,60.75
2022-09-23T09:25:02.196Z,61.07
2022-09-23T09:26:02.162Z,61.07
2022-09-23T09:27:02.153Z,61.71
2022-09-23T09:28:02.144Z,61.71
2022-09-23T09:31:49.668Z,59.78
2022-09-23T09:32:49.529Z,62.68
2022-09-23T09:33:49.468Z,62.84
2022-09-23T09:34:49.495Z,61.23
2022-09-23T09:35:49.433Z,60.26
2022-09-23T09:36:49.470Z,62.36
2022-09-23T09:37:49.470Z,60.91
2022-09-23T09:38:49.435Z,61.23
2022-09-23T09:39:49.394Z,58.97
2022-09-23T09:40:49.411Z,58.33
2022-09-23T09:41:49.363Z,60.59
2022-09-23T09:42:49.389Z,62.04
2022-09-23T09:43:49.360Z,60.59
2022-09-23T09:44:49.338Z,58.33
2022-09-23T09:45:52.711Z,59.14
2022-09-23T09:46:49.380Z,62.20
2022-09-23T09:47:50.511Z,59.94
2022-09-23T09:48:50.492Z,58.33
2022-09-23T09:49:50.473Z,61.71
2022-09-23T09:50:50.421Z,61.87
2022-09-23T09:51:50.408Z,59.30
2022-09-23T09:52:50.385Z,60.91
2022-09-23T09:53:50.336Z,61.71
2022-09-23T09:54:50.367Z,62.52
2022-09-23T09:55:50.311Z,60.75
2022-09-23T09:56:50.331Z,61.07
2022-09-23T09:57:50.380Z,59.78
2022-09-23T09:58:50.284Z,59.94
2022-09-23T09:59:50.277Z,62.68
2022-09-23T10:00:50.259Z,59.46
2022-09-23T10:01:50.216Z,59.14
2022-09-23T10:02:50.282Z,60.75
2022-09-23T10:03:51.392Z,59.94
2022-09-23T10:04:50.301Z,60.59
2022-09-23T10:05:50.191Z,60.75
2022-09-23T10:06:50.132Z,61.71
2022-09-23T10:07:50.157Z,62.36
2022-09-23T10:08:50.125Z,60.59
2022-09-23T10:09:50.204Z,61.39
2022-09-23T10:10:50.134Z,59.78
2022-09-23T10:11:50.155Z,59.94
2022-09-23T10:12:50.383Z,63.00
2022-09-23T10:13:50.433Z,61.87
2022-09-23T10:14:50.057Z,60.42
2022-09-23T10:15:50.001Z,61.07
2022-09-23T10:16:50.052Z,62.36
2022-09-23T10:17:50.006Z,60.91
2022-09-23T10:18:50.107Z,58.65
2022-09-23T10:19:49.959Z,58.81
2022-09-23T10:20:49.935Z,61.07
2022-09-23T10:25:14.782Z,61.71
2022-09-23T10:26:14.715Z,62.84
2022-09-23T10:27:14.741Z,59.14
2022-09-23T10:28:14.686Z,60.42
2022-09-23T10:29:14.707Z,59.94
2022-09-23T10:30:14.657Z,59.94
2022-09-23T10:31:14.698Z,61.39
2022-09-23T10:32:14.658Z,63.81
2022-09-23T10:33:14.658Z,59.46
2022-09-23T10:34:14.604Z,61.87
2022-09-23T10:35:14.634Z,62.36
2022-09-23T10:36:14.568Z,60.75
2022-09-23T10:37:14.584Z,60.10
2022-09-23T10:38:14.547Z,61.23
2022-09-23T10:39:14.582Z,61.87
2022-09-23T10:40:14.602Z,63.49
2022-09-23T10:41:14.538Z,62.04
2022-09-23T10:42:14.562Z,62.36
2022-09-23T10:43:14.503Z,63.00
2022-09-23T10:44:14.470Z,63.00
2022-09-23T10:45:14.508Z,62.84
2022-09-23T10:46:14.467Z,62.68
2022-09-23T10:47:14.438Z,62.84
2022-09-23T10:48:14.457Z,61.07
2022-09-23T10:49:14.413Z,62.84
2022-09-23T10:50:14.395Z,62.68
2022-09-23T10:51:14.426Z,62.52
2022-09-23T10:52:14.393Z,61.23
2022-09-23T10:53:14.394Z,62.20
2022-09-23T10:54:14.338Z,62.20
2022-09-23T10:55:14.336Z,63.97
2022-09-23T10:56:14.336Z,62.36
2022-09-23T10:57:14.339Z,62.84
2022-09-23T10:58:14.337Z,61.71
2022-09-23T10:59:14.311Z,63.49
2022-09-23T11:00:14.264Z,63.49
2022-09-23T11:01:14.316Z,62.68
2022-09-23T11:02:14.239Z,62.04
2022-09-23T11:03:14.274Z,63.16
2022-09-23T11:04:14.458Z,63.49
2022-09-23T11:05:14.220Z,61.39
2022-09-23T11:06:14.189Z,61.07
2022-09-23T11:07:14.189Z,63.65
2022-09-23T11:08:14.211Z,60.10
2022-09-23T11:09:14.239Z,60.26
2022-09-23T11:10:29.001Z,62.84
2022-09-23T11:11:15.158Z,61.23
2022-09-23T11:12:14.127Z,61.39
2022-09-23T11:13:14.120Z,62.52
2022-09-23T11:14:14.202Z,62.84
2022-09-23T11:15:14.131Z,64.13
2022-09-23T11:16:14.130Z,63.16
2022-09-23T11:17:14.067Z,60.91
2022-09-23T11:18:14.052Z,60.91
2022-09-23T11:19:14.067Z,61.23
2022-09-23T11:20:14.042Z,64.45
2022-09-23T11:21:14.108Z,61.87
2022-09-23T11:22:14.001Z,63.16
2022-09-23T11:23:14.004Z,62.36
2022-09-23T11:24:13.975Z,61.87
2022-09-23T11:25:14.005Z,63.16
2022-09-23T11:26:13.948Z,62.52
2022-09-23T11:27:13.985Z,63.16
2022-09-23T11:28:13.927Z,62.52
2022-09-23T11:29:13.936Z,62.84
2022-09-23T11:30:13.918Z,61.55
2022-09-23T11:31:13.963Z,59.94
2022-09-23T11:32:13.887Z,61.23
2022-09-23T11:33:14.034Z,62.20
2022-09-23T11:34:13.880Z,62.84
2022-09-23T11:35:13.891Z,63.65
2022-09-23T11:36:13.864Z,64.29
2022-09-23T11:37:13.848Z,63.49
2022-09-23T11:38:13.814Z,60.75
2022-09-23T11:39:13.810Z,60.26
2022-09-23T11:40:15.171Z,62.84
2022-09-23T11:41:14.917Z,63.97
2022-09-23T11:42:14.927Z,61.87
2022-09-23T11:43:14.876Z,62.84
2022-09-23T11:44:14.905Z,62.68
2022-09-23T11:45:14.854Z,60.10
2022-09-23T11:46:14.934Z,61.55
2022-09-23T11:47:50.048Z,64.29
2022-09-23T11:48:14.939Z,62.36
2022-09-23T11:49:15.006Z,63.16
2022-09-23T11:50:14.852Z,61.39
2022-09-23T11:51:14.906Z,62.68
2022-09-23T11:52:14.856Z,62.04
2022-09-23T11:53:14.936Z,63.33
2022-09-23T11:54:19.742Z,63.97
2022-09-23T11:55:21.283Z,62.36
2022-09-23T11:56:17.600Z,61.87
2022-09-23T11:57:14.766Z,59.62
2022-09-23T11:58:26.223Z,61.55
2022-09-23T11:59:15.230Z,62.20
2022-09-23T12:00:14.988Z,59.62
2022-09-23T12:01:14.882Z,61.71
2022-09-23T12:02:20.306Z,63.81
2022-09-23T12:03:14.734Z,61.87
2022-09-23T12:04:20.530Z,61.87
2022-09-23T12:05:14.750Z,62.68
2022-09-23T12:06:15.045Z,61.39
2022-09-23T12:07:14.630Z,61.07
2022-09-23T12:08:14.650Z,62.68
2022-09-23T12:09:14.596Z,62.04
2022-09-23T12:10:14.599Z,59.46
2022-09-23T12:11:14.590Z,59.78
2022-09-23T12:12:14.572Z,61.71
2022-09-23T12:13:14.578Z,60.59
2022-09-23T12:14:14.813Z,60.42
2022-09-23T12:15:14.884Z,61.23
2022-09-23T12:16:14.637Z,63.81
2022-09-23T12:17:14.495Z,63.33
2022-09-23T12:18:14.506Z,61.55
2022-09-23T12:19:14.553Z,62.20
2022-09-23T12:20:14.502Z,59.14
2022-09-23T12:21:32.756Z,63.16
2022-09-23T12:22:15.487Z,63.16
2022-09-23T12:23:14.459Z,62.04
2022-09-23T12:24:18.442Z,61.71
2022-09-23T12:25:14.450Z,58.81
2022-09-23T12:26:14.405Z,60.26
2022-09-23T12:27:14.405Z,61.55
2022-09-23T12:28:14.412Z,60.26
2022-09-23T12:29:14.390Z,62.68
2022-09-23T12:30:14.396Z,60.91
2022-09-23T12:31:14.431Z,60.91
2022-09-23T12:32:14.316Z,63.97
2022-09-23T12:33:14.320Z,63.00
2022-09-23T12:34:14.312Z,62.36
2022-09-23T12:35:14.319Z,63.81
2022-09-23T12:36:14.300Z,64.61
2022-09-23T12:37:14.266Z,64.45
2022-09-23T12:38:14.266Z,63.16
2022-09-23T12:39:14.273Z,64.29
2022-09-23T12:40:14.265Z,64.78
2022-09-23T12:41:14.257Z,62.84
2022-09-23T12:42:14.236Z,63.00
2022-09-23T12:43:14.212Z,64.13
2022-09-23T12:44:14.199Z,65.10
2022-09-23T12:45:14.184Z,63.97
2022-09-23T12:46:14.248Z,63.65
2022-09-23T12:47:14.162Z,64.94
2022-09-23T12:48:14.161Z,65.10
2022-09-23T12:49:14.130Z,65.10
2022-09-23T12:50:17.679Z,66.23
2022-09-23T12:51:14.166Z,66.55
2022-09-23T12:52:14.109Z,67.19
2022-09-23T12:53:14.090Z,68.64
2022-09-23T12:54:14.103Z,67.19
2022-09-23T12:55:14.072Z,67.84
2022-09-23T12:56:14.064Z,64.13
2022-09-23T12:57:14.086Z,65.26
2022-09-23T12:58:14.046Z,65.26
2022-09-23T12:59:14.028Z,64.29
2022-09-23T13:00:14.032Z,64.78
2022-09-23T13:01:14.983Z,63.49
2022-09-23T13:02:14.099Z,65.26
2022-09-23T13:03:13.997Z,64.78
2022-09-23T13:04:13.974Z,63.16
2022-09-23T13:05:13.965Z,64.61
2022-09-23T13:06:13.964Z,63.65
2022-09-23T13:07:13.951Z,65.26
2022-09-23T13:08:13.925Z,63.49
2022-09-23T13:09:13.933Z,63.97